ADDS METAR Data INFO
IDs: Format: Raw Decoded Include TAF

Data at: 1305 UTC 23 Apr 2018

KPIL 231253Z AUTO 06009KT 8SM FEW085 22/17 A3006 RMK AO2 SLP177 T02220167 $
KPIL 231153Z AUTO 07007KT 10SM OVC080 22/17 A3002 RMK AO2 SLP166 T02170167 10217 20211 53009 $
KPIL 231053Z AUTO 07007KT 9SM OVC080 22/17 A3000 RMK AO2 SLP158 T02170172 $
KPIL 230953Z AUTO 07007KT 9SM BKN080 21/17 A3000 RMK AO2 SLP157 T02110167 $
KPIL 230853Z AUTO 07008KT 9SM OVC080 22/17 A3000 RMK AO2 SLP157 T02170172 55006 $
KPIL 230753Z AUTO 08007KT 9SM CLR 21/17 A2999 RMK AO2 SLP155 T02110167 $
KPIL 230653Z AUTO 07009KT 9SM CLR 21/16 A2999 RMK AO2 SLP155 T02110161 $
KPIL 230553Z AUTO 08006KT 9SM CLR 21/16 A3001 RMK AO2 SLP163 T02110161 10228 20211 402610211 50006 $
KPIL 230453Z AUTO 08006KT 9SM CLR 21/16 A3003 RMK AO2 SLP169 T02110161 $
KPIL 230353Z AUTO 08007KT 9SM CLR 22/16 A3003 RMK AO2 SLP168 T02170161 $
KPIL 230253Z AUTO 06008KT 9SM CLR 22/16 A3000 RMK AO2 SLP156 T02170156 53010 $
KPIL 230153Z AUTO 05008KT 9SM CLR 22/16 A2998 RMK AO2 SLP150 T02170161 $
KPIL 230053Z AUTO 07009KT 8SM CLR 22/16 A2996 RMK AO2 SLP146 T02170156 $
KPIL 222353Z AUTO 06009KT 7SM CLR 23/16 A2997 RMK AO2 SLP147 T02280156 10250 20228 55005 $
KPIL 222253Z AUTO 06015KT 7SM CLR 23/16 A2996 RMK AO2 SLP145 T02330161 $
KPIL 222153Z AUTO 05013G20KT 7SM FEW016 24/18 A2996 RMK AO2 SLP145 T02440178 $
KPIL 222144Z AUTO 05014G20KT 7SM SCT016 24/18 A2996 RMK AO2 T02390178 $
KPIL 222137Z AUTO 05010KT 7SM BKN016 24/18 A2996 RMK AO2 T02440178 $
KPIL 222127Z AUTO 05013G18KT 7SM SCT016 24/18 A2996 RMK AO2 T02440178 $
KPIL 222053Z AUTO 03013G19KT 7SM BKN015 24/17 A2998 RMK AO2 SLP152 T02390172 56012 $
KPIL 222048Z AUTO 04012G19KT 7SM OVC015 24/18 A2998 RMK AO2 $
KPIL 221953Z AUTO 03012KT 7SM OVC011 23/18 A3000 RMK AO2 SLP158 T02330183 $
KPIL 221936Z AUTO 01012KT 6SM HZ OVC010 23/18 A3000 RMK AO2 T02330183 $
KPIL 221853Z AUTO 01014KT 6SM HZ OVC009 23/19 A3002 RMK AO2 SLP164 T02330189 $
KPIL 221830Z AUTO 02012KT 6SM HZ OVC009 24/19 A3002 RMK AO2 T02390194 $
KPIL 221753Z AUTO 03014KT 6SM HZ BKN013 OVC027 24/19 A3003 RMK AO2 SLP167 T02440194 10261 20222 51009 $
KPIL 221653Z AUTO 05010KT 6SM HZ BKN011 OVC022 25/20 A3002 RMK AO2 SLP165 T02500200 $
KPIL 221644Z AUTO 05014KT 6SM HZ BKN011 OVC023 24/20 A3002 RMK AO2 T02440200 $
KPIL 221633Z AUTO 03013KT 6SM HZ SCT011 OVC024 24/20 A3002 RMK AO2 T02440200 $
KPIL 221553Z AUTO 01016KT 6SM HZ BKN012 OVC019 25/21 A3001 RMK AO2 SLP160 T02500206 $
KPIL 221524Z AUTO 01011KT 6SM HZ BKN010 BKN017 OVC021 25/21 A3000 RMK AO2 T02500211 $
KPIL 221453Z AUTO 02012KT 5SM HZ BKN009 OVC016 24/22 A3000 RMK AO2 CIG 008V012 SLP157 T02440217 51016 $
KPIL 221436Z AUTO 02010KT 5SM HZ BKN009 BKN015 OVC020 24/22 A2999 RMK AO2 CIG 008V012 T02440217 $
KPIL 221353Z AUTO 01009KT 4SM BR SCT009 BKN017 OVC024 24/22 A2999 RMK AO2 SLP155 T02440222 $
KPIL 221342Z AUTO 01009KT 4SM BR SCT008 SCT011 BKN017 24/22 A2999 RMK AO2 T02390222 $
KPIL 221333Z AUTO 01010KT 4SM BR BKN010 BKN015 24/22 A2999 RMK AO2 CIG 006V012 T02390222 $
KPIL 221300Z AUTO 04003KT 3SM BR CLR 23/22 A2997 RMK AO2 T02330222 $
KPIL 221253Z AUTO 04003KT 2 1/2SM BR CLR 23/22 A2997 RMK AO2 SLP146 T02330217 $
KPIL 221222Z AUTO 05003KT 2 1/2SM BR FEW016 23/21 A2996 RMK AO2 T02280211 $
KPIL 221215Z AUTO 04004KT 3SM BR FEW016 22/21 A2996 RMK AO2 T02220211 $
KPIL 221153Z AUTO 03004KT 4SM BR FEW010 OVC016 23/21 A2995 RMK AO2 SLP141 70001 T02280211 53016 $
KPIL 221118Z AUTO 02005KT 4SM BR FEW007 OVC013 23/21 A2994 RMK AO2 T02280211 $
KPIL 221053Z AUTO 01003KT 4SM HZ OVC007 A2993 RMK AO2 CIG 005V010 SLP136 $
KPIL 221005Z AUTO 00000KT 4SM HZ BKN007 OVC012 A2991 RMK AO2 $
KPIL 220953Z AUTO 00000KT 4SM HZ SCT007 BKN012 A2991 RMK AO2 SLP129 $
KPIL 220948Z AUTO 00000KT 4SM HZ FEW007 BKN012 A2991 RMK AO2 $
KPIL 220853Z AUTO 19005KT 5SM BR FEW014 23/21 A2990 RMK AO2 SLP125 T02330211 56007 $
KPIL 220851Z AUTO 19005KT 5SM BR FEW007 FEW014 23/21 A2990 RMK AO2 $
KPIL 220804Z AUTO 18005KT 5SM BR SCT014 23/21 A2991 RMK AO2 T02330211 $
KPIL 220753Z AUTO 18006KT 5SM HZ BKN014 24/21 A2991 RMK AO2 SLP126 T02390211 $
KPIL 220743Z AUTO 18006KT 5SM HZ OVC013 24/21 A2991 RMK AO2 T02390211 $
KPIL 220700Z AUTO 19003KT 6SM HZ OVC009 24/21 A2992 RMK AO2 T02390211 $
KPIL 220653Z AUTO 00000KT 6SM HZ OVC010 24/21 A2992 RMK AO2 SLP132 T02390211 $
KPIL 220610Z AUTO 18005KT 6SM BR BKN012 23/21 A2992 RMK AO2 T02330211 $
KPIL 220553Z AUTO 18006KT 6SM BR FEW009 23/21 A2993 RMK AO2 SLP133 T02330211 10256 20233 402780222 53005 $
KPIL 220543Z AUTO 17006KT 6SM BR FEW009 23/21 A2993 RMK AO2 T02330211 $
KPIL 220453Z AUTO 17006KT 6SM HZ CLR 24/21 A2992 RMK AO2 SLP132 T02390211 $
KPIL 220353Z AUTO 16009KT 7SM SCT013 24/21 A2991 RMK AO2 SLP128 T02390211 $
KPIL 220350Z AUTO 16009KT 7SM SCT013 24/21 A2991 RMK AO2 $
KPIL 220253Z AUTO 16010KT 7SM OVC013 24/21 A2990 RMK AO2 SLP125 T02440211 51017 $
KPIL 220153Z AUTO 16012G21KT 7SM BKN013 24/21 A2988 RMK AO2 SLP118 T02440211 $
KPIL 220148Z AUTO 15015G21KT 7SM BKN013 24/21 A2988 RMK AO2 $